sensor_id;sensor_type;location;lat;lon;timestamp;pressure;altitude;pressure_sealevel;temperature;humidity
46174;BME280;31897;52.420;13.498;2022-12-18T00:01:23;102900;;;-5.6145;34.44596
46174;BME280;31897;52.420;13.498;2022-12-18T00:04:25;103000;;;-5.65326;34.36689
46174;BME280;31897;52.420;13.498;2022-12-18T00:07:26;102900;;;-5.66585;34.40103
46174;BME280;31897;52.420;13.498;2022-12-18T00:10:27;103000;;;-5.67619;34.3444
46174;BME280;31897;52.420;13.498;2022-12-18T00:13:28;103000;;;-5.70203;34.37299
46174;BME280;31897;52.420;13.498;2022-12-18T00:16:29;103000;;;-5.71333;34.28235
46174;BME280;31897;52.420;13.498;2022-12-18T00:19:30;103000;;;-5.88871;34.34627
46174;BME280;31897;52.420;13.498;2022-12-18T00:22:31;103000;;;-5.90842;34.42013
46174;BME280;31897;52.420;13.498;2022-12-18T00:25:32;103000;;;-5.99336;34.35851
46174;BME280;31897;52.420;13.498;2022-12-18T00:28:33;103000;;;-6.03599;34.33621
46174;BME280;31897;52.420;13.498;2022-12-18T00:31:34;103000;;;-6.00305;34.43227
46174;BME280;31897;52.420;13.498;2022-12-18T00:34:35;103000;;;-6.03115;34.39851
46174;BME280;31897;52.420;13.498;2022-12-18T00:37:36;103000;;;-6.06345;34.43845
46174;BME280;31897;52.420;13.498;2022-12-18T00:40:36;103000;;;-6.03147;34.61384
46174;BME280;31897;52.420;13.498;2022-12-18T00:43:38;103000;;;-5.95622;34.41487
46174;BME280;31897;52.420;13.498;2022-12-18T00:46:39;103000;;;-5.97818;34.32438
46174;BME280;31897;52.420;13.498;2022-12-18T00:49:40;102900;;;-5.98335;34.32442
46174;BME280;31897;52.420;13.498;2022-12-18T00:52:41;102900;;;-5.94685;34.3241
46174;BME280;31897;52.420;13.498;2022-12-18T00:55:47;102900;;;-5.93102;34.42599
46174;BME280;31897;52.420;13.498;2022-12-18T00:58:48;102900;;;-5.87709;34.29514
46174;BME280;31897;52.420;13.498;2022-12-18T01:01:48;102900;;;-5.81636;34.35697
46174;BME280;31897;52.420;13.498;2022-12-18T01:04:49;102900;;;-5.78116;34.23192
46174;BME280;31897;52.420;13.498;2022-12-18T01:07:50;102900;;;-5.70074;34.19716
46174;BME280;31897;52.420;13.498;2022-12-18T01:10:51;102900;;;-5.86384;34.02857
46174;BME280;31897;52.420;13.498;2022-12-18T01:13:52;102900;;;-5.96106;34.12018
46174;BME280;31897;52.420;13.498;2022-12-18T01:16:53;102900;;;-5.98561;34.11474
46174;BME280;31897;52.420;13.498;2022-12-18T01:19:54;102900;;;-6.01661;34.19437
46174;BME280;31897;52.420;13.498;2022-12-18T01:22:55;103000;;;-6.01403;34.21701
46174;BME280;31897;52.420;13.498;2022-12-18T01:25:55;103000;;;-5.99917;34.30189
46174;BME280;31897;52.420;13.498;2022-12-18T01:28:56;103000;;;-5.96171;34.13152
46174;BME280;31897;52.420;13.498;2022-12-18T01:31:57;103000;;;-6.04342;34.1096
46174;BME280;31897;52.420;13.498;2022-12-18T01:34:58;103000;;;-6.09768;34.30842
46174;BME280;31897;52.420;13.498;2022-12-18T01:37:59;103000;;;-6.06377;34.24013
46174;BME280;31897;52.420;13.498;2022-12-18T01:41:00;103000;;;-6.00305;34.26792
46174;BME280;31897;52.420;13.498;2022-12-18T01:44:01;103000;;;-6.0389;34.16057
46174;BME280;31897;52.420;13.498;2022-12-18T01:47:02;103000;;;-5.98076;34.22805
46174;BME280;31897;52.420;13.498;2022-12-18T01:50:05;103000;;;-5.97689;34.12033
46174;BME280;31897;52.420;13.498;2022-12-18T01:53:07;103000;;;-5.95751;34.04079
46174;BME280;31897;52.420;13.498;2022-12-18T01:56:12;103000;;;-5.98044;34.12036
46174;BME280;31897;52.420;13.498;2022-12-18T01:59:13;103000;;;-6.02889;34.06413
46174;BME280;31897;52.420;13.498;2022-12-18T02:02:14;103000;;;-6.05634;34.13806
46174;BME280;31897;52.420;13.498;2022-12-18T02:05:17;103000;;;-6.08896;34.05336
46174;BME280;31897;52.420;13.498;2022-12-18T02:08:20;103000;;;-6.07378;34.04188
46174;BME280;31897;52.420;13.498;2022-12-18T02:11:24;103000;;;-6.10156;34.09881
46174;BME280;31897;52.420;13.498;2022-12-18T02:14:28;103000;;;-6.1626;34.04271
46174;BME280;31897;52.420;13.498;2022-12-18T02:17:34;103000;;;-6.15065;34.05393
46174;BME280;31897;52.420;13.498;2022-12-18T02:20:38;103000;;;-6.18069;34.07121
46174;BME280;31897;52.420;13.498;2022-12-18T02:23:45;103000;;;-6.21202;34.12815
46174;BME280;31897;52.420;13.498;2022-12-18T02:26:48;103000;;;-6.13515;34.13311
46174;BME280;31897;52.420;13.498;2022-12-18T02:29:51;103000;;;-6.23527;34.19633
46174;BME280;31897;52.420;13.498;2022-12-18T02:32:52;103000;;;-6.25627;34.06624
46174;BME280;31897;52.420;13.498;2022-12-18T02:35:54;103000;;;-6.28921;33.91362
46174;BME280;31897;52.420;13.498;2022-12-18T02:38:56;103000;;;-6.29438;34.11757
46174;BME280;31897;52.420;13.498;2022-12-18T02:41:57;103000;;;-6.29696;34.10627
46174;BME280;31897;52.420;13.498;2022-12-18T02:44:58;103000;;;-6.26886;34.0607
46174;BME280;31897;52.420;13.498;2022-12-18T02:47:58;103000;;;-6.25724;34.00395
46174;BME280;31897;52.420;13.498;2022-12-18T02:51:00;103000;;;-6.27629;34.04377
46174;BME280;31897;52.420;13.498;2022-12-18T02:54:05;103000;;;-6.3228;34.06119
46174;BME280;31897;52.420;13.498;2022-12-18T02:57:12;103000;;;-6.38449;34.06176
46174;BME280;31897;52.420;13.498;2022-12-18T03:00:16;103000;;;-6.45878;34.08509
46174;BME280;31897;52.420;13.498;2022-12-18T03:03:19;103000;;;-6.50303;34.17041
46174;BME280;31897;52.420;13.498;2022-12-18T03:06:23;103000;;;-6.47396;34.28337
46174;BME280;31897;52.420;13.498;2022-12-18T03:09:27;103000;;;-6.4071;34.23183
46174;BME280;31897;52.420;13.498;2022-12-18T03:12:30;103000;;;-6.39257;34.16942
46174;BME280;31897;52.420;13.498;2022-12-18T03:15:34;103000;;;-6.30213;34.11764
46174;BME280;31897;52.420;13.498;2022-12-18T03:18:36;103000;;;-6.40936;33.97139
46174;BME280;31897;52.420;13.498;2022-12-18T03:21:40;103000;;;-6.46071;34.08511
46174;BME280;31897;52.420;13.498;2022-12-18T03:24:42;103000;;;-6.41356;34.12998
46174;BME280;31897;52.420;13.498;2022-12-18T03:27:43;103000;;;-6.39644;34.0279
46174;BME280;31897;52.420;13.498;2022-12-18T03:30:45;103000;;;-6.5434;34.11416
46174;BME280;31897;52.420;13.498;2022-12-18T03:33:51;103000;;;-6.51078;34.09122
46174;BME280;31897;52.420;13.498;2022-12-18T03:36:52;103000;;;-6.56181;34.02376
46174;BME280;31897;52.420;13.498;2022-12-18T03:39:53;103000;;;-6.57117;34.09177
46174;BME280;31897;52.420;13.498;2022-12-18T03:42:55;103000;;;-6.49657;34.1194
46174;BME280;31897;52.420;13.498;2022-12-18T03:46:02;103000;;;-6.48332;34.07399
46174;BME280;31897;52.420;13.498;2022-12-18T03:49:08;103000;;;-6.58442;33.91077
46174;BME280;31897;52.420;13.498;2022-12-18T03:52:11;103000;;;-6.60896;33.9676
46174;BME280;31897;52.420;13.498;2022-12-18T03:55:15;103000;;;-6.59507;34.05803
46174;BME280;31897;52.420;13.498;2022-12-18T03:58:17;103000;;;-6.66225;34.14918
46174;BME280;31897;52.420;13.498;2022-12-18T04:01:20;103000;;;-6.7065;34.27971
46174;BME280;31897;52.420;13.498;2022-12-18T04:04:22;103000;;;-6.69875;34.22306
46174;BME280;31897;52.420;13.498;2022-12-18T04:07:25;103000;;;-6.67098;34.16624
46174;BME280;31897;52.420;13.498;2022-12-18T04:10:26;103000;;;-6.69811;34.1495
46174;BME280;31897;52.420;13.498;2022-12-18T04:13:28;103000;;;-6.70747;34.0817
46174;BME280;31897;52.420;13.498;2022-12-18T04:16:29;103000;;;-6.74042;34.11027
46174;BME280;31897;52.420;13.498;2022-12-18T04:19:30;103000;;;-6.63835;34.12068
46174;BME280;31897;52.420;13.498;2022-12-18T04:22:31;103000;;;-6.60799;34.02419
46174;BME280;31897;52.420;13.498;2022-12-18T04:25:31;103000;;;-6.60993;34.12042
46174;BME280;31897;52.420;13.498;2022-12-18T04:28:32;103000;;;-6.65063;34.08117
46174;BME280;31897;52.420;13.498;2022-12-18T04:31:33;103000;;;-6.62834;34.04136
46174;BME280;31897;52.420;13.498;2022-12-18T04:34:34;103000;;;-6.63125;34.08666
46174;BME280;31897;52.420;13.498;2022-12-18T04:37:34;103000;;;-6.65967;34.10389
46174;BME280;31897;52.420;13.498;2022-12-18T04:40:35;103000;;;-6.65515;34.12083
46174;BME280;31897;52.420;13.498;2022-12-18T04:43:36;103000;;;-6.58377;34.26734
46174;BME280;31897;52.420;13.498;2022-12-18T04:46:37;103100;;;-6.47751;34.26642
46174;BME280;31897;52.420;13.498;2022-12-18T04:49:38;103000;;;-6.44683;34.19255
46174;BME280;31897;52.420;13.498;2022-12-18T04:52:38;103100;;;-6.42616;34.16406
46174;BME280;31897;52.420;13.498;2022-12-18T04:55:39;103100;;;-6.48365;34.11362
46174;BME280;31897;52.420;13.498;2022-12-18T04:58:40;103100;;;-6.46944;34.16445
46174;BME280;31897;52.420;13.498;2022-12-18T05:01:41;103100;;;-6.44715;34.15859
46174;BME280;31897;52.420;13.498;2022-12-18T05:04:42;103100;;;-6.58151;34.15412
46174;BME280;31897;52.420;13.498;2022-12-18T05:07:43;103100;;;-6.53823;34.34053
46174;BME280;31897;52.420;13.498;2022-12-18T05:10:44;103100;;;-6.46976;34.35127
46174;BME280;31897;52.420;13.498;2022-12-18T05:13:45;103100;;;-6.39095;34.31096
46174;BME280;31897;52.420;13.498;2022-12-18T05:16:46;103100;;;-6.36511;34.26544
46174;BME280;31897;52.420;13.498;2022-12-18T05:19:47;103100;;;-6.41227;34.11298
46174;BME280;31897;52.420;13.498;2022-12-18T05:22:48;103100;;;-6.46039;34.29458
46174;BME280;31897;52.420;13.498;2022-12-18T05:25:50;103100;;;-6.49172;34.31749
46174;BME280;31897;52.420;13.498;2022-12-18T05:28:51;103100;;;-6.4717;34.33996
46174;BME280;31897;52.420;13.498;2022-12-18T05:31:52;103100;;;-6.45426;34.30585
46174;BME280;31897;52.420;13.498;2022-12-18T05:34:53;103100;;;-6.52628;34.34043
46174;BME280;31897;52.420;13.498;2022-12-18T05:37:54;103100;;;-6.44715;34.31145
46174;BME280;31897;52.420;13.498;2022-12-18T05:40:55;103100;;;-6.39999;34.33369
46174;BME280;31897;52.420;13.498;2022-12-18T05:43:56;103100;;;-6.37028;34.27115
46174;BME280;31897;52.420;13.498;2022-12-18T05:46:57;103100;;;-6.35122;34.15206
46174;BME280;31897;52.420;13.498;2022-12-18T05:49:57;103100;;;-6.32862;34.15186
46174;BME280;31897;52.420;13.498;2022-12-18T05:52:58;103100;;;-6.3312;34.14622
46174;BME280;31897;52.420;13.498;2022-12-18T05:55:59;103100;;;-6.24852;34.21344
46174;BME280;31897;52.420;13.498;2022-12-18T05:59:00;103100;;;-6.27952;34.02681
46174;BME280;31897;52.420;13.498;2022-12-18T06:02:01;103100;;;-6.36414;34.00495
46174;BME280;31897;52.420;13.498;2022-12-18T06:05:02;103100;;;-6.35155;34.07278
46174;BME280;31897;52.420;13.498;2022-12-18T06:08:03;103100;;;-6.29696;34.19122
46174;BME280;31897;52.420;13.498;2022-12-18T06:11:04;103100;;;-6.35639;34.04451
46174;BME280;31897;52.420;13.498;2022-12-18T06:14:05;103100;;;-6.50044;34.07415
46174;BME280;31897;52.420;13.498;2022-12-18T06:17:06;103100;;;-6.55244;34.25575
46174;BME280;31897;52.420;13.498;2022-12-18T06:20:07;103100;;;-6.54986;34.30667
46174;BME280;31897;52.420;13.498;2022-12-18T06:23:08;103100;;;-6.5757;34.21633
46174;BME280;31897;52.420;13.498;2022-12-18T06:26:10;103100;;;-6.59185;34.27307
46174;BME280;31897;52.420;13.498;2022-12-18T06:29:11;103100;;;-6.60961;34.35245
46174;BME280;31897;52.420;13.498;2022-12-18T06:32:12;103100;;;-6.56536;34.39735
46174;BME280;31897;52.420;13.498;2022-12-18T06:35:13;103100;;;-6.52531;34.37438
46174;BME280;31897;52.420;13.498;2022-12-18T06:38:14;103100;;;-6.44069;34.42462
46174;BME280;31897;52.420;13.498;2022-12-18T06:41:15;103100;;;-6.36544;34.36737
46174;BME280;31897;52.420;13.498;2022-12-18T06:44:16;103100;;;-6.37868;34.36181
46174;BME280;31897;52.420;13.498;2022-12-18T06:47:17;103100;;;-6.42745;34.24334
46174;BME280;31897;52.420;13.498;2022-12-18T06:50:18;103200;;;-6.45135;34.35111
46174;BME280;31897;52.420;13.498;2022-12-18T06:53:19;103100;;;-6.49592;34.28356
46174;BME280;31897;52.420;13.498;2022-12-18T06:56:20;103200;;;-6.45426;34.33981
46174;BME280;31897;52.420;13.498;2022-12-18T06:59:20;103200;;;-6.4704;34.32297
46174;BME280;31897;52.420;13.498;2022-12-18T07:02:21;103200;;;-6.44553;34.42466
46174;BME280;31897;52.420;13.498;2022-12-18T07:05:22;103200;;;-6.44521;34.3737
46174;BME280;31897;52.420;13.498;2022-12-18T07:08:23;103200;;;-6.40032;34.41862
46174;BME280;31897;52.420;13.498;2022-12-18T07:11:24;103200;;;-6.3115;34.36124
46174;BME280;31897;52.420;13.498;2022-12-18T07:14:25;103200;;;-6.32474;34.39533
46174;BME280;31897;52.420;13.498;2022-12-18T07:17:25;103200;;;-6.26434;34.3212
46174;BME280;31897;52.420;13.498;2022-12-18T07:20:26;103200;;;-6.26434;34.27589
46174;BME280;31897;52.420;13.498;2022-12-18T07:23:27;103200;;;-6.26757;34.2306
46174;BME280;31897;52.420;13.498;2022-12-18T07:26:28;103200;;;-6.28469;34.27606
46174;BME280;31897;52.420;13.498;2022-12-18T07:29:28;103200;;;-6.25336;34.24747
46174;BME280;31897;52.420;13.498;2022-12-18T07:32:30;103200;;;-6.21719;34.32079
46174;BME280;31897;52.420;13.498;2022-12-18T07:35:31;103200;;;-6.28114;34.27037
46174;BME280;31897;52.420;13.498;2022-12-18T07:38:33;103200;;;-6.31247;34.1687
46174;BME280;31897;52.420;13.498;2022-12-18T07:41:34;103200;;;-6.31376;34.32162
46174;BME280;31897;52.420;13.498;2022-12-18T07:44:35;103200;;;-6.31925;34.34432
46174;BME280;31897;52.420;13.498;2022-12-18T07:47:35;103200;;;-6.275;34.24766
46174;BME280;31897;52.420;13.498;2022-12-18T07:50:36;103200;;;-6.27306;34.35525
46174;BME280;31897;52.420;13.498;2022-12-18T07:53:38;103200;;;-6.13483;34.28042
46174;BME280;31897;52.420;13.498;2022-12-18T07:56:39;103200;;;-6.16454;34.15038
46174;BME280;31897;52.420;13.498;2022-12-18T07:59:39;103200;;;-6.21234;34.09983
46174;BME280;31897;52.420;13.498;2022-12-18T08:02:40;103200;;;-6.3664;34.12389
46174;BME280;31897;52.420;13.498;2022-12-18T08:05:41;103200;;;-6.35671;34.1691
46174;BME280;31897;52.420;13.498;2022-12-18T08:08:42;103200;;;-6.64029;34.36403
46174;BME280;31897;52.420;13.498;2022-12-18T08:11:43;103200;;;-6.58345;34.61255
46174;BME280;31897;52.420;13.498;2022-12-18T08:14:43;103200;;;-6.46362;34.4984
46174;BME280;31897;52.420;13.498;2022-12-18T08:17:44;103200;;;-6.47493;34.50981
46174;BME280;31897;52.420;13.498;2022-12-18T08:20:45;103200;;;-6.39095;34.47516
46174;BME280;31897;52.420;13.498;2022-12-18T08:23:46;103200;;;-6.32797;34.27078
46174;BME280;31897;52.420;13.498;2022-12-18T08:26:47;103200;;;-6.34929;34.36157
46174;BME280;31897;52.420;13.498;2022-12-18T08:29:48;103200;;;-6.36285;34.40132
46174;BME280;31897;52.420;13.498;2022-12-18T08:32:51;103200;;;-6.36576;34.33339
46174;BME280;31897;52.420;13.498;2022-12-18T08:35:52;103200;;;-6.29922;34.48007
46174;BME280;31897;52.420;13.498;2022-12-18T08:38:52;103200;;;-6.17875;34.41109
46174;BME280;31897;52.420;13.498;2022-12-18T08:41:53;103200;;;-6.10576;34.48413
46174;BME280;31897;52.420;13.498;2022-12-18T08:44:54;103200;;;-6.00531;34.57963
46174;BME280;31897;52.420;13.498;2022-12-18T08:47:55;103200;;;-5.86094;34.54443
46174;BME280;31897;52.420;13.498;2022-12-18T08:50:56;103200;;;-5.75241;34.36208
46174;BME280;31897;52.420;13.498;2022-12-18T08:53:57;103200;;;-5.72496;34.35617
46174;BME280;31897;52.420;13.498;2022-12-18T08:56:57;103200;;;-5.69525;34.35024
46174;BME280;31897;52.420;13.498;2022-12-18T08:59:58;103200;;;-5.6103;34.33815
46174;BME280;31897;52.420;13.498;2022-12-18T09:02:59;103200;;;-5.53601;34.45663
46174;BME280;31897;52.420;13.498;2022-12-18T09:06:00;103200;;;-5.49952;34.43362
46174;BME280;31897;52.420;13.498;2022-12-18T09:09:01;103200;;;-5.43557;34.33092
46174;BME280;31897;52.420;13.498;2022-12-18T09:12:02;103200;;;-5.42717;34.41597
46174;BME280;31897;52.420;13.498;2022-12-18T09:15:03;103200;;;-5.48175;34.41644
46174;BME280;31897;52.420;13.498;2022-12-18T09:18:05;103200;;;-5.45591;34.48998
46174;BME280;31897;52.420;13.498;2022-12-18T09:21:09;103200;;;-5.44106;34.47851
46174;BME280;31897;52.420;13.498;2022-12-18T09:24:11;103200;;;-5.40327;34.47818
46174;BME280;31897;52.420;13.498;2022-12-18T09:27:12;103200;;;-5.32349;34.64777
46174;BME280;31897;52.420;13.498;2022-12-18T09:30:13;103200;;;-5.30217;34.60786
46174;BME280;31897;52.420;13.498;2022-12-18T09:33:14;103200;;;-5.32478;34.53426
46174;BME280;31897;52.420;13.498;2022-12-18T09:36:16;103200;;;-5.23725;34.63002
46174;BME280;31897;52.420;13.498;2022-12-18T09:39:17;103200;;;-5.09288;34.66289
46174;BME280;31897;52.420;13.498;2022-12-18T09:42:19;103200;;;-5.05541;34.6285
46174;BME280;31897;52.420;13.498;2022-12-18T09:45:20;103200;;;-4.91976;34.66145
46174;BME280;31897;52.420;13.498;2022-12-18T09:48:23;103200;;;-4.7799;34.54094
46174;BME280;31897;52.420;13.498;2022-12-18T09:51:27;103200;;;-4.77183;34.42151
46174;BME280;31897;52.420;13.498;2022-12-18T09:54:31;103200;;;-4.829;34.39361
46174;BME280;31897;52.420;13.498;2022-12-18T09:57:32;103200;;;-4.83417;34.58686
46174;BME280;31897;52.420;13.498;2022-12-18T10:00:35;103200;;;-4.82254;34.62654
46174;BME280;31897;52.420;13.498;2022-12-18T10:03:36;103200;;;-4.78766;34.67739
46174;BME280;31897;52.420;13.498;2022-12-18T10:06:38;103200;;;-4.72048;34.63704
46174;BME280;31897;52.420;13.498;2022-12-18T10:09:44;103200;;;-4.76085;34.4953
46174;BME280;31897;52.420;13.498;2022-12-18T10:12:48;103200;;;-4.76634;34.67721
46174;BME280;31897;52.420;13.498;2022-12-18T10:15:59;103200;;;-4.70529;34.61417
46174;BME280;31897;52.420;13.498;2022-12-18T10:19:07;103200;;;-4.68688;34.77317
46174;BME280;31897;52.420;13.498;2022-12-18T10:22:15;103200;;;-4.69108;34.73341
46174;BME280;31897;52.420;13.498;2022-12-18T10:25:21;103200;;;-4.64683;34.81831
46174;BME280;31897;52.420;13.498;2022-12-18T10:28:23;103200;;;-4.56027;34.72095
46174;BME280;31897;52.420;13.498;2022-12-18T10:31:25;103200;;;-4.46887;34.72587
46174;BME280;31897;52.420;13.498;2022-12-18T10:34:25;103200;;;-4.43269;34.85069
46174;BME280;31897;52.420;13.498;2022-12-18T10:37:27;103200;;;-4.35679;34.81594
46174;BME280;31897;52.420;13.498;2022-12-18T10:40:29;103100;;;-4.3471;34.61677
46174;BME280;31897;52.420;13.498;2022-12-18T10:43:30;103100;;;-4.30382;34.70173
46174;BME280;31897;52.420;13.498;2022-12-18T10:46:31;103100;;;-4.30414;34.49692
46174;BME280;31897;52.420;13.498;2022-12-18T10:49:32;103100;;;-4.31545;34.58236
46174;BME280;31897;52.420;13.498;2022-12-18T10:52:35;103100;;;-4.24278;34.54188
46174;BME280;31897;52.420;13.498;2022-12-18T10:55:37;103100;;;-4.30802;34.5766
46174;BME280;31897;52.420;13.498;2022-12-18T10:58:38;103100;;;-4.31383;34.61079
46174;BME280;31897;52.420;13.498;2022-12-18T11:01:48;103100;;;-4.2909;34.51387
46174;BME280;31897;52.420;13.498;2022-12-18T11:04:50;103100;;;-4.32772;34.38334
46174;BME280;31897;52.420;13.498;2022-12-18T11:07:51;103100;;;-4.37649;34.44068
46174;BME280;31897;52.420;13.498;2022-12-18T11:10:52;103100;;;-4.49471;34.40763
46174;BME280;31897;52.420;13.498;2022-12-18T11:13:56;103100;;;-4.62649;34.51685
46174;BME280;31897;52.420;13.498;2022-12-18T11:16:59;103100;;;-4.66654;34.63089
46174;BME280;31897;52.420;13.498;2022-12-18T11:20:00;103100;;;-4.62584;34.62486
46174;BME280;31897;52.420;13.498;2022-12-18T11:23:03;103100;;;-4.54574;34.7322
46174;BME280;31897;52.420;13.498;2022-12-18T11:26:05;103100;;;-4.47371;34.62924
46174;BME280;31897;52.420;13.498;2022-12-18T11:29:08;103100;;;-4.48405;34.53834
46174;BME280;31897;52.420;13.498;2022-12-18T11:32:20;103100;;;-4.4398;34.6062
46174;BME280;31897;52.420;13.498;2022-12-18T11:35:32;103100;;;-4.43495;34.52653
46174;BME280;31897;52.420;13.498;2022-12-18T11:38:36;103100;;;-4.42333;34.52642
46174;BME280;31897;52.420;13.498;2022-12-18T11:41:38;103100;;;-4.56027;34.53332
46174;BME280;31897;52.420;13.498;2022-12-18T11:44:45;103100;;;-4.52474;34.60693
46174;BME280;31897;52.420;13.498;2022-12-18T11:47:48;103100;;;-4.44852;34.65746
46174;BME280;31897;52.420;13.498;2022-12-18T11:50:52;103100;;;-4.36874;34.63402
46174;BME280;31897;52.420;13.498;2022-12-18T11:53:54;103100;;;-4.33418;34.4915
46174;BME280;31897;52.420;13.498;2022-12-18T11:56:56;103100;;;-4.40815;34.67417
46174;BME280;31897;52.420;13.498;2022-12-18T12:00:00;103100;;;-4.3077;34.69038
46174;BME280;31897;52.420;13.498;2022-12-18T12:06:35;103100;;;-4.19433;34.70648
46174;BME280;31897;52.420;13.498;2022-12-18T12:09:40;103100;;;-4.01765;34.60818
46174;BME280;31897;52.420;13.498;2022-12-18T12:12:51;103100;;;-4.00829;34.56825
46174;BME280;31897;52.420;13.498;2022-12-18T12:15:57;103100;;;-3.92108;34.45358
46174;BME280;31897;52.420;13.498;2022-12-18T12:19:06;103100;;;-3.85454;34.49283
46174;BME280;31897;52.420;13.498;2022-12-18T12:22:15;103100;;;-3.73988;34.46329
46174;BME280;31897;52.420;13.498;2022-12-18T12:25:23;103100;;;-3.66656;34.39993
46174;BME280;31897;52.420;13.498;2022-12-18T12:28:37;103100;;;-3.66688;34.32016
46174;BME280;31897;52.420;13.498;2022-12-18T12:31:49;103200;;;-3.72212;34.23523
46174;BME280;31897;52.420;13.498;2022-12-18T12:34:54;103200;;;-3.73374;34.25244
46174;BME280;31897;52.420;13.498;2022-12-18T12:38:04;103200;;;-3.75635;34.1729
46174;BME280;31897;52.420;13.498;2022-12-18T12:41:07;103200;;;-3.8484;34.29912
46174;BME280;31897;52.420;13.498;2022-12-18T12:44:12;103200;;;-3.81998;34.38998
46174;BME280;31897;52.420;13.498;2022-12-18T12:47:16;103200;;;-3.87295;34.33923
46174;BME280;31897;52.420;13.498;2022-12-18T12:50:20;103200;;;-3.90396;34.38508
46174;BME280;31897;52.420;13.498;2022-12-18T12:53:23;103200;;;-3.93303;34.32841
46174;BME280;31897;52.420;13.498;2022-12-18T12:56:30;103200;;;-3.88296;34.30515
46174;BME280;31897;52.420;13.498;2022-12-18T12:59:35;103100;;;-3.84291;34.33324
46174;BME280;31897;52.420;13.498;2022-12-18T13:02:39;103100;;;-3.92334;34.24289
46174;BME280;31897;52.420;13.498;2022-12-18T13:05:44;103100;;;-4.03025;34.21547
46174;BME280;31897;52.420;13.498;2022-12-18T13:08:55;103100;;;-4.14588;34.26782
46174;BME280;31897;52.420;13.498;2022-12-18T13:11:57;103100;;;-4.24665;34.42812
46174;BME280;31897;52.420;13.498;2022-12-18T13:15:11;103100;;;-4.18561;34.49016
46174;BME280;31897;52.420;13.498;2022-12-18T13:18:15;103100;;;-4.23858;34.57599
46174;BME280;31897;52.420;13.498;2022-12-18T13:21:19;103100;;;-4.23341;34.66129
46174;BME280;31897;52.420;13.498;2022-12-18T13:24:23;103100;;;-4.13522;34.6889
46174;BME280;31897;52.420;13.498;2022-12-18T13:27:45;103100;;;-4.12392;34.52375
46174;BME280;31897;52.420;13.498;2022-12-18T13:30:48;103100;;;-4.15331;34.51263
46174;BME280;31897;52.420;13.498;2022-12-18T13:33:49;103100;;;-4.19885;34.45613
46174;BME280;31897;52.420;13.498;2022-12-18T13:36:50;103100;;;-4.19045;34.50727
46174;BME280;31897;52.420;13.498;2022-12-18T13:39:52;103100;;;-4.21855;34.38802
46174;BME280;31897;52.420;13.498;2022-12-18T13:42:52;103100;;;-4.22953;34.37105
46174;BME280;31897;52.420;13.498;2022-12-18T13:45:59;103100;;;-4.19982;34.43907
46174;BME280;31897;52.420;13.498;2022-12-18T13:49:00;103100;;;-4.1911;34.45037
46174;BME280;31897;52.420;13.498;2022-12-18T13:52:02;103100;;;-4.26183;34.5136
46174;BME280;31897;52.420;13.498;2022-12-18T13:55:04;103100;;;-4.37682;34.54876
46174;BME280;31897;52.420;13.498;2022-12-18T13:58:06;103100;;;-4.42397;34.589
46174;BME280;31897;52.420;13.498;2022-12-18T14:01:14;103100;;;-4.41299;34.57752
46174;BME280;31897;52.420;13.498;2022-12-18T14:04:18;103100;;;-4.40265;34.71394
46174;BME280;31897;52.420;13.498;2022-12-18T14:07:20;103100;;;-4.34452;34.61105
46174;BME280;31897;52.420;13.498;2022-12-18T14:10:22;103100;;;-4.29155;34.73576
46174;BME280;31897;52.420;13.498;2022-12-18T14:13:24;103100;;;-4.26797;34.75832
46174;BME280;31897;52.420;13.498;2022-12-18T14:16:27;103100;;;-4.34549;34.53711
46174;BME280;31897;52.420;13.498;2022-12-18T14:19:28;103100;;;-4.42139;34.76529
46174;BME280;31897;52.420;13.498;2022-12-18T14:22:29;103100;;;-4.392;34.8333
46174;BME280;31897;52.420;13.498;2022-12-18T14:25:31;103100;;;-4.44497;34.8906
46174;BME280;31897;52.420;13.498;2022-12-18T14:28:31;103100;;;-4.47533;34.8226
46174;BME280;31897;52.420;13.498;2022-12-18T14:31:32;103100;;;-4.57061;34.87455
46174;BME280;31897;52.420;13.498;2022-12-18T14:34:33;103100;;;-4.66783;34.88669
46174;BME280;31897;52.420;13.498;2022-12-18T14:37:34;103100;;;-4.71466;34.89843
46174;BME280;31897;52.420;13.498;2022-12-18T14:40:34;103000;;;-4.76149;34.87039
46174;BME280;31897;52.420;13.498;2022-12-18T14:43:36;103000;;;-4.87454;34.90537
46174;BME280;31897;52.420;13.498;2022-12-18T14:46:37;103000;;;-4.89069;34.95094
46174;BME280;31897;52.420;13.498;2022-12-18T14:49:39;103000;;;-4.86356;35.08708
46174;BME280;31897;52.420;13.498;2022-12-18T14:52:42;103000;;;-4.8923;35.01344
46174;BME280;31897;52.420;13.498;2022-12-18T14:55:43;103000;;;-4.92363;35.15001
46174;BME280;31897;52.420;13.498;2022-12-18T14:58:46;103000;;;-4.89004;35.17817
46174;BME280;31897;52.420;13.498;2022-12-18T15:01:48;103000;;;-4.82738;35.06409
46174;BME280;31897;52.420;13.498;2022-12-18T15:04:59;103000;;;-4.81317;34.96171
46174;BME280;31897;52.420;13.498;2022-12-18T15:08:01;103000;;;-4.90975;34.95677
46174;BME280;31897;52.420;13.498;2022-12-18T15:11:03;103100;;;-5.02667;35.07125